Time;durP1;ratioP1;P1;durP2;ratioP2;P2;SDS_P1;SDS_P2;PMS_P1;PMS_P2;Temp;Humidity;BMP_temperature;BMP_pressure;BME280_temperature;BME280_humidity;BME280_pressure;Samples;Min_cycle;Max_cycle;Signal;HPM_P1;HPM_P2
2022/06/30 00:00:45;;;;;;;4.10;3.03;;;21.00;99.90;;;;;;4938372;29;20028;-88
2022/06/30 00:03:11;;;;;;;5.93;3.35;;;21.00;99.90;;;;;;4937969;29;20028;-84
2022/06/30 00:05:37;;;;;;;10.05;3.00;;;20.90;99.90;;;;;;4936830;29;20036;-85
2022/06/30 00:08:03;;;;;;;6.97;3.10;;;20.90;99.90;;;;;;4916521;29;20126;-85
2022/06/30 00:10:29;;;;;;;6.93;3.03;;;20.90;99.90;;;;;;4932548;29;20397;-87
2022/06/30 00:12:55;;;;;;;5.13;3.42;;;20.80;99.90;;;;;;4932336;29;20044;-85
2022/06/30 00:15:20;;;;;;;5.75;3.70;;;20.80;99.90;;;;;;4930756;29;20032;-87
2022/06/30 00:17:47;;;;;;;5.47;4.13;;;20.80;99.90;;;;;;4936190;29;20043;-86
2022/06/30 00:20:13;;;;;;;8.88;3.80;;;20.80;99.90;;;;;;4940253;29;20016;-85
2022/06/30 00:22:39;;;;;;;5.20;3.63;;;20.80;99.90;;;;;;4958024;23;20055;-79
2022/06/30 00:25:05;;;;;;;7.38;3.97;;;20.80;99.90;;;;;;4935274;29;20084;-81
2022/06/30 00:27:31;;;;;;;5.47;3.30;;;20.90;99.90;;;;;;4933849;29;20058;-81
2022/06/30 00:29:57;;;;;;;9.43;3.72;;;20.90;99.90;;;;;;4934498;29;20028;-79
2022/06/30 00:32:23;;;;;;;6.13;3.88;;;20.90;99.90;;;;;;4930702;29;20047;-80
2022/06/30 00:34:48;;;;;;;5.50;3.80;;;20.90;99.90;;;;;;4916908;29;20053;-79
2022/06/30 00:37:14;;;;;;;6.95;3.95;;;21.00;99.90;;;;;;4912750;29;20033;-83
2022/06/30 00:39:40;;;;;;;7.05;4.30;;;21.00;99.90;;;;;;4909064;29;20024;-81
2022/06/30 00:42:07;;;;;;;4.32;3.60;;;20.90;99.90;;;;;;4910781;29;20032;-81
2022/06/30 00:44:33;;;;;;;6.63;4.18;;;20.90;99.90;;;;;;4914129;29;20030;-81
2022/06/30 00:46:58;;;;;;;6.78;4.10;;;20.80;99.90;;;;;;4916135;29;20128;-80
2022/06/30 00:49:24;;;;;;;6.00;3.30;;;20.80;99.90;;;;;;4916649;29;20395;-79
2022/06/30 00:51:51;;;;;;;5.68;3.25;;;20.80;99.90;;;;;;4916031;29;20100;-80
2022/06/30 00:54:18;;;;;;;5.55;3.90;;;20.80;99.90;;;;;;4911668;29;20035;-80
2022/06/30 00:56:47;;;;;;;7.18;3.92;;;20.70;99.90;;;;;;4909611;29;20047;-80
2022/06/30 00:59:15;;;;;;;5.05;3.40;;;20.70;99.90;;;;;;4907456;29;20020;-82
2022/06/30 01:01:43;;;;;;;6.85;3.58;;;21.20;99.90;;;;;;4910907;29;20025;-80
2022/06/30 01:04:09;;;;;;;4.90;3.88;;;21.80;99.90;;;;;;4910637;29;20147;-80
2022/06/30 01:06:37;;;;;;;7.32;3.70;;;22.00;99.90;;;;;;4909485;29;20036;-80
2022/06/30 01:09:04;;;;;;;8.77;3.83;;;22.00;99.90;;;;;;4911376;29;20060;-81
2022/06/30 01:14:18;;;;;;;9.35;4.40;;;22.10;99.90;;;;;;4908108;29;20493;-80
2022/06/30 01:16:44;;;;;;;7.00;4.07;;;21.70;99.90;;;;;;4906230;29;20031;-80
2022/06/30 01:19:13;;;;;;;5.82;4.00;;;21.50;99.90;;;;;;4905013;29;20028;-81
2022/06/30 01:21:39;;;;;;;11.07;4.75;;;21.50;99.90;;;;;;4904679;29;20024;-81
2022/06/30 01:24:05;;;;;;;6.70;3.80;;;21.50;99.90;;;;;;4903832;29;20047;-79
2022/06/30 01:26:31;;;;;;;6.50;3.63;;;21.70;99.90;;;;;;4904148;29;20089;-81
2022/06/30 01:28:57;;;;;;;7.22;4.13;;;21.80;99.90;;;;;;4905717;29;20041;-80
2022/06/30 01:31:23;;;;;;;10.95;4.20;;;21.90;99.90;;;;;;4909048;29;20037;-81
2022/06/30 01:33:50;;;;;;;5.00;3.92;;;21.90;99.90;;;;;;4909322;29;20091;-78
2022/06/30 01:36:16;;;;;;;7.05;4.25;;;21.80;99.90;;;;;;4909251;29;20108;-78
2022/06/30 01:38:41;;;;;;;7.25;4.53;;;21.70;99.90;;;;;;4905894;29;20077;-81
2022/06/30 01:41:08;;;;;;;7.22;3.95;;;21.60;99.90;;;;;;4905001;29;20032;-80
2022/06/30 01:43:33;;;;;;;10.75;4.10;;;21.50;99.90;;;;;;4909798;29;20028;-81
2022/06/30 01:45:59;;;;;;;8.45;4.63;;;21.50;99.90;;;;;;4908899;29;20032;-81
2022/06/30 01:48:25;;;;;;;6.97;4.82;;;21.40;99.90;;;;;;4911464;29;20041;-80
2022/06/30 01:50:51;;;;;;;8.07;5.10;;;21.30;99.90;;;;;;4906675;29;20024;-80
2022/06/30 01:53:17;;;;;;;9.02;5.43;;;21.00;99.90;;;;;;4907041;29;20070;-80
2022/06/30 01:55:43;;;;;;;8.55;4.93;;;20.90;99.90;;;;;;4906660;29;20370;-80
2022/06/30 01:58:08;;;;;;;10.40;4.78;;;20.80;99.90;;;;;;4906451;29;20043;-80
2022/06/30 02:00:34;;;;;;;9.73;5.00;;;20.80;99.90;;;;;;4905596;29;20028;-79
2022/06/30 02:03:00;;;;;;;7.07;4.70;;;20.70;99.90;;;;;;4907000;29;20127;-80
2022/06/30 02:05:26;;;;;;;9.45;4.68;;;20.70;99.90;;;;;;4908086;29;20036;-80
2022/06/30 02:07:53;;;;;;;6.22;3.92;;;20.70;99.90;;;;;;4907270;29;20052;-79
2022/06/30 02:10:21;;;;;;;11.07;4.57;;;20.70;99.90;;;;;;4903025;29;20049;-78
2022/06/30 02:12:48;;;;;;;9.00;5.28;;;20.70;99.90;;;;;;4913697;29;20032;-79
2022/06/30 02:15:32;;;;;;;11.45;4.85;;;20.80;99.90;;;;;;4911436;29;20028;-80
2022/06/30 02:17:59;;;;;;;7.20;4.70;;;20.80;99.90;;;;;;4908530;29;20060;-81
2022/06/30 02:20:24;;;;;;;8.65;4.88;;;20.70;99.90;;;;;;4905728;29;20028;-81
2022/06/30 02:22:54;;;;;;;9.50;4.50;;;20.70;99.90;;;;;;4905643;29;20032;-80
2022/06/30 02:25:20;;;;;;;9.40;5.18;;;20.70;99.90;;;;;;4907233;29;20035;-80
2022/06/30 02:27:46;;;;;;;9.20;4.38;;;20.70;99.90;;;;;;4908756;29;20032;-80
2022/06/30 02:30:13;;;;;;;7.65;4.75;;;20.70;99.90;;;;;;4904966;29;20042;-80
2022/06/30 02:32:39;;;;;;;10.27;4.95;;;20.70;99.90;;;;;;4908659;29;20036;-79
2022/06/30 02:35:05;;;;;;;6.40;4.45;;;20.90;99.90;;;;;;4909668;29;20029;-79
2022/06/30 02:37:31;;;;;;;8.60;4.75;;;21.20;99.90;;;;;;4908960;29;20165;-81
2022/06/30 02:39:57;;;;;;;8.15;5.05;;;21.40;99.90;;;;;;4906717;29;20037;-80
2022/06/30 02:42:22;;;;;;;11.30;4.80;;;21.40;99.90;;;;;;4908666;29;20111;-80
2022/06/30 02:44:48;;;;;;;6.95;4.53;;;21.20;99.90;;;;;;4909323;29;20043;-80
2022/06/30 02:47:15;;;;;;;8.63;4.93;;;21.10;99.90;;;;;;4909019;29;20029;-81
2022/06/30 02:49:41;;;;;;;8.18;4.63;;;21.00;99.90;;;;;;4908245;29;20111;-79
2022/06/30 02:52:07;;;;;;;9.90;5.22;;;21.00;99.90;;;;;;4906581;29;20051;-81
2022/06/30 02:54:33;;;;;;;8.05;4.78;;;20.90;99.90;;;;;;4908969;29;20102;-79
2022/06/30 02:56:59;;;;;;;7.53;4.20;;;20.90;99.90;;;;;;4909623;29;20077;-80
2022/06/30 02:59:25;;;;;;;6.78;4.55;;;20.80;99.90;;;;;;4908611;29;20584;-80
2022/06/30 03:01:51;;;;;;;7.93;4.10;;;20.80;99.90;;;;;;4913088;29;20029;-80
2022/06/30 03:04:17;;;;;;;9.60;4.45;;;20.80;99.90;;;;;;4912644;29;20056;-79
2022/06/30 03:06:42;;;;;;;7.63;4.20;;;20.80;99.90;;;;;;4908709;29;20092;-78
2022/06/30 03:09:08;;;;;;;6.78;4.53;;;20.80;99.90;;;;;;4905481;29;20401;-81
2022/06/30 03:11:34;;;;;;;6.88;3.90;;;20.80;99.90;;;;;;4908627;29;20108;-80
2022/06/30 03:14:00;;;;;;;8.05;5.07;;;21.00;99.90;;;;;;4905029;29;20033;-80
2022/06/30 03:16:25;;;;;;;8.32;4.93;;;21.20;99.90;;;;;;4907402;29;20547;-79
2022/06/30 03:18:52;;;;;;;7.07;4.50;;;21.20;99.90;;;;;;4906784;29;20029;-80
2022/06/30 03:21:19;;;;;;;8.07;4.65;;;21.40;99.90;;;;;;4907015;29;20092;-80
2022/06/30 03:23:46;;;;;;;10.27;4.78;;;21.50;99.90;;;;;;4906599;29;20064;-82
2022/06/30 03:26:12;;;;;;;8.68;4.43;;;21.80;99.90;;;;;;4907588;29;20032;-79
2022/06/30 03:28:38;;;;;;;8.43;4.95;;;21.80;99.90;;;;;;4908329;29;20028;-81
2022/06/30 03:31:04;;;;;;;8.27;4.93;;;21.80;99.90;;;;;;4906548;29;20420;-80
2022/06/30 03:33:30;;;;;;;8.52;4.80;;;21.80;99.90;;;;;;4902795;29;20028;-81
2022/06/30 03:35:57;;;;;;;8.43;4.45;;;22.00;99.90;;;;;;4903062;29;20028;-81
2022/06/30 03:38:23;;;;;;;9.63;4.72;;;22.00;99.90;;;;;;4904065;29;20060;-79
2022/06/30 03:40:49;;;;;;;6.47;4.68;;;21.90;99.90;;;;;;4904722;29;20033;-80
2022/06/30 03:43:16;;;;;;;10.00;4.38;;;21.80;99.90;;;;;;4903321;29;20081;-80
2022/06/30 03:45:43;;;;;;;11.50;5.35;;;21.70;99.90;;;;;;4903266;29;20060;-80
2022/06/30 03:48:08;;;;;;;8.82;4.72;;;21.40;99.90;;;;;;4902693;29;20041;-80
2022/06/30 03:50:34;;;;;;;10.98;5.13;;;21.40;99.90;;;;;;4903256;29;20075;-80
2022/06/30 03:53:01;;;;;;;7.32;4.90;;;21.30;99.90;;;;;;4922686;29;20052;-82
2022/06/30 03:55:28;;;;;;;9.18;5.43;;;21.20;99.90;;;;;;4916157;29;20052;-82
2022/06/30 03:57:54;;;;;;;7.07;4.88;;;21.10;99.90;;;;;;4934039;29;20039;-86
2022/06/30 04:00:20;;;;;;;10.80;5.43;;;21.10;99.90;;;;;;4930543;29;20008;-83
2022/06/30 04:02:46;;;;;;;9.18;5.10;;;21.10;99.90;;;;;;4920763;29;20032;-81
2022/06/30 04:05:12;;;;;;;14.85;5.75;;;21.10;99.90;;;;;;4919797;29;20088;-80
2022/06/30 04:07:48;;;;;;;11.18;5.07;;;21.10;99.90;;;;;;4928283;29;20028;-81
2022/06/30 04:10:14;;;;;;;12.85;5.10;;;21.10;99.90;;;;;;4931976;29;20028;-81
2022/06/30 04:12:41;;;;;;;9.73;4.80;;;21.20;99.90;;;;;;4928514;29;20024;-81
2022/06/30 04:15:07;;;;;;;9.60;4.60;;;21.40;99.90;;;;;;4932859;29;20036;-80
2022/06/30 04:17:34;;;;;;;7.78;4.85;;;21.40;99.90;;;;;;4928341;29;20424;-80
2022/06/30 04:20:01;;;;;;;12.90;5.10;;;21.60;99.90;;;;;;4932680;29;20024;-82
2022/06/30 04:22:27;;;;;;;12.82;5.50;;;21.70;99.90;;;;;;4932734;29;20035;-81
2022/06/30 04:24:53;;;;;;;9.00;5.13;;;21.80;99.90;;;;;;4934486;29;20040;-80
2022/06/30 04:27:18;;;;;;;8.40;4.90;;;22.00;99.90;;;;;;4937686;29;20035;-80
2022/06/30 04:29:44;;;;;;;10.93;5.80;;;22.00;99.90;;;;;;4936563;29;20035;-82
2022/06/30 04:34:54;;;;;;;16.50;5.70;;;22.10;99.90;;;;;;4930761;29;20404;-81
2022/06/30 04:37:20;;;;;;;13.68;5.10;;;22.20;99.90;;;;;;4932671;29;20028;-80
2022/06/30 04:39:46;;;;;;;8.68;5.45;;;22.20;99.90;;;;;;4933474;29;20028;-81
2022/06/30 04:42:11;;;;;;;10.57;5.63;;;22.20;99.90;;;;;;4934083;29;20037;-81
2022/06/30 04:44:37;;;;;;;9.68;5.32;;;22.20;99.90;;;;;;4934437;29;20032;-81
2022/06/30 04:47:03;;;;;;;12.48;5.68;;;22.30;99.90;;;;;;4930210;29;20039;-81
2022/06/30 04:49:29;;;;;;;9.88;5.68;;;22.30;99.90;;;;;;4923718;29;20036;-83
2022/06/30 04:51:55;;;;;;;16.63;4.82;;;22.40;99.90;;;;;;4935362;29;20111;-80
2022/06/30 04:54:21;;;;;;;10.57;5.10;;;22.60;99.90;;;;;;4925368;29;20059;-80
2022/06/30 04:56:46;;;;;;;7.35;4.97;;;22.70;99.90;;;;;;4925420;29;20016;-81
2022/06/30 04:59:12;;;;;;;9.02;4.53;;;22.80;99.90;;;;;;4926416;29;20095;-81
2022/06/30 05:01:38;;;;;;;8.18;5.07;;;22.90;99.90;;;;;;4927093;29;20031;-80
2022/06/30 05:04:04;;;;;;;11.63;5.38;;;23.00;99.90;;;;;;4923953;29;20025;-81
2022/06/30 05:06:30;;;;;;;10.90;4.78;;;23.10;99.90;;;;;;4922040;29;20055;-80
2022/06/30 05:08:56;;;;;;;8.27;4.72;;;23.30;99.90;;;;;;4922426;29;20468;-80
2022/06/30 05:11:21;;;;;;;10.10;4.78;;;23.30;99.90;;;;;;4933032;29;20075;-81
2022/06/30 05:13:47;;;;;;;10.35;5.28;;;23.40;99.90;;;;;;4928002;29;20121;-82
2022/06/30 05:16:13;;;;;;;9.13;4.57;;;23.50;99.90;;;;;;4922155;29;20059;-81
2022/06/30 05:18:40;;;;;;;9.82;4.95;;;23.50;99.90;;;;;;4924919;29;20506;-82
2022/06/30 05:21:06;;;;;;;9.13;5.30;;;23.60;99.90;;;;;;4924500;29;20024;-81
2022/06/30 05:23:32;;;;;;;13.35;5.07;;;23.70;99.90;;;;;;4922411;29;20035;-82
2022/06/30 05:28:42;;;;;;;12.02;5.32;;;23.70;99.90;;;;;;4911052;29;20032;-80
2022/06/30 05:31:07;;;;;;;10.40;5.13;;;23.80;99.90;;;;;;4911906;29;20095;-82
2022/06/30 05:33:33;;;;;;;11.02;4.78;;;23.90;99.90;;;;;;4906458;29;20044;-82
2022/06/30 05:35:59;;;;;;;10.65;5.13;;;23.90;99.90;;;;;;4905983;29;20439;-81
2022/06/30 05:38:25;;;;;;;11.48;4.65;;;24.00;99.90;;;;;;4907197;29;20681;-82
2022/06/30 05:40:51;;;;;;;15.23;4.88;;;24.10;99.90;;;;;;4905794;29;20025;-82
2022/06/30 05:43:18;;;;;;;16.85;5.10;;;24.20;99.90;;;;;;4904488;29;20453;-82
2022/06/30 05:45:46;;;;;;;17.63;5.07;;;24.20;99.90;;;;;;4906529;29;20034;-82
2022/06/30 05:48:12;;;;;;;12.05;5.13;;;24.20;99.90;;;;;;4904105;29;20064;-81
2022/06/30 05:50:38;;;;;;;16.20;4.50;;;24.30;99.90;;;;;;4921528;29;20036;-81
2022/06/30 05:53:04;;;;;;;18.23;4.43;;;24.20;99.90;;;;;;4923008;29;20040;-82
2022/06/30 05:55:30;;;;;;;14.80;4.25;;;24.20;99.90;;;;;;4919605;29;20083;-81
2022/06/30 05:57:57;;;;;;;10.63;4.95;;;24.10;99.90;;;;;;4907277;29;20025;-82
2022/06/30 06:00:28;;;;;;;5.93;4.30;;;24.30;99.90;;;;;;4906812;29;20029;-82
2022/06/30 06:02:54;;;;;;;9.23;5.72;;;24.40;99.90;;;;;;4908566;29;20036;-81
2022/06/30 06:05:20;;;;;;;12.60;3.80;;;24.40;99.90;;;;;;4918361;29;20111;-82
2022/06/30 06:07:46;;;;;;;9.57;3.97;;;24.50;99.90;;;;;;4921226;29;20060;-81
2022/06/30 06:10:15;;;;;;;6.40;3.90;;;24.50;99.90;;;;;;4926728;29;20032;-79
2022/06/30 06:12:44;;;;;;;8.85;4.10;;;24.40;99.90;;;;;;4928276;29;20036;-80
2022/06/30 06:15:11;;;;;;;13.80;3.80;;;24.40;99.90;;;;;;4902746;29;20041;-80
2022/06/30 06:17:47;;;;;;;6.22;3.45;;;24.30;99.90;;;;;;4912604;29;20043;-84
2022/06/30 06:20:16;;;;;;;6.30;3.60;;;24.40;99.90;;;;;;4913832;29;20044;-83
2022/06/30 06:22:42;;;;;;;4.88;3.35;;;24.50;99.90;;;;;;4950191;23;20044;-83
2022/06/30 06:25:09;;;;;;;5.88;3.50;;;24.80;99.90;;;;;;4931602;29;20024;-81
2022/06/30 06:27:35;;;;;;;8.23;3.90;;;25.20;99.90;;;;;;4927966;29;20026;-83
2022/06/30 06:30:03;;;;;;;3.92;2.90;;;25.40;99.90;;;;;;4936612;29;20547;-84
2022/06/30 06:32:30;;;;;;;5.72;3.33;;;25.50;99.90;;;;;;4930959;29;20036;-84
2022/06/30 06:34:56;;;;;;;8.63;3.72;;;25.50;99.90;;;;;;4910233;29;20044;-83
2022/06/30 06:37:22;;;;;;;9.68;3.60;;;25.50;99.90;;;;;;4914259;29;20013;-84
2022/06/30 06:39:48;;;;;;;8.77;3.83;;;25.50;99.90;;;;;;4916313;29;20080;-83
2022/06/30 06:42:14;;;;;;;9.32;3.50;;;25.50;99.90;;;;;;4917482;29;20083;-85
2022/06/30 06:44:39;;;;;;;10.45;4.00;;;25.40;99.90;;;;;;4914315;29;20033;-82
2022/06/30 06:47:06;;;;;;;8.43;3.45;;;25.30;99.90;;;;;;4917274;29;20119;-85
2022/06/30 06:49:32;;;;;;;6.18;4.03;;;25.20;99.90;;;;;;4915789;29;20446;-83
2022/06/30 06:51:58;;;;;;;6.15;4.20;;;25.10;99.90;;;;;;4913740;29;20035;-82
2022/06/30 06:54:24;;;;;;;7.75;3.42;;;25.00;99.90;;;;;;4915637;29;20115;-84
2022/06/30 06:56:50;;;;;;;9.10;3.70;;;25.00;99.90;;;;;;4911655;29;20079;-83
2022/06/30 06:59:16;;;;;;;7.28;3.47;;;25.00;99.90;;;;;;4915238;29;20035;-84
2022/06/30 07:01:42;;;;;;;6.45;3.50;;;24.90;99.90;;;;;;4921941;29;20024;-84
2022/06/30 07:04:08;;;;;;;9.20;3.80;;;24.90;99.90;;;;;;4913820;29;20032;-83
2022/06/30 07:06:34;;;;;;;6.78;3.33;;;24.90;99.90;;;;;;4918509;29;20080;-83
2022/06/30 07:09:01;;;;;;;4.53;3.25;;;25.00;99.90;;;;;;4928431;29;20036;-82
2022/06/30 07:11:27;;;;;;;6.03;4.03;;;25.20;99.90;;;;;;4923241;29;20453;-84
2022/06/30 07:13:52;;;;;;;5.75;3.47;;;25.40;99.90;;;;;;4913309;29;20103;-82
2022/06/30 07:16:18;;;;;;;6.30;3.53;;;25.60;99.90;;;;;;4909864;29;20040;-83
2022/06/30 07:18:46;;;;;;;6.63;3.17;;;25.90;99.90;;;;;;4918592;29;20041;-84
2022/06/30 07:21:11;;;;;;;3.92;2.85;;;26.00;99.90;;;;;;4905221;29;20064;-84
2022/06/30 07:23:37;;;;;;;6.45;3.28;;;26.10;99.90;;;;;;4904211;29;20040;-83
2022/06/30 07:26:03;;;;;;;2.78;2.50;;;26.10;99.90;;;;;;4903524;29;20100;-82
2022/06/30 07:28:30;;;;;;;4.10;3.08;;;26.00;99.90;;;;;;4904417;29;20449;-86
2022/06/30 07:30:56;;;;;;;3.47;2.50;;;26.00;99.90;;;;;;4909750;29;20028;-84
2022/06/30 07:33:22;;;;;;;6.90;2.90;;;26.00;99.90;;;;;;4920652;29;20043;-84
2022/06/30 07:35:48;;;;;;;6.18;3.00;;;26.00;99.90;;;;;;4914437;29;20084;-84
2022/06/30 07:38:14;;;;;;;5.50;3.38;;;26.10;99.90;;;;;;4907228;29;20032;-86
2022/06/30 07:40:39;;;;;;;6.07;3.63;;;26.20;99.90;;;;;;4907427;29;20047;-86
2022/06/30 07:43:05;;;;;;;6.85;3.08;;;26.30;99.90;;;;;;4907065;29;20537;-86
2022/06/30 07:45:31;;;;;;;6.63;3.33;;;26.40;99.90;;;;;;4905842;29;20112;-85
2022/06/30 07:47:57;;;;;;;4.90;3.13;;;26.40;99.90;;;;;;4906854;29;20036;-88
2022/06/30 07:50:23;;;;;;;5.70;3.15;;;26.40;99.90;;;;;;4906277;29;20035;-85
2022/06/30 07:52:49;;;;;;;10.55;3.75;;;26.30;99.90;;;;;;4914341;29;20034;-86
2022/06/30 07:55:15;;;;;;;5.78;3.35;;;26.30;99.90;;;;;;4918783;29;20034;-87
2022/06/30 07:57:42;;;;;;;6.13;3.28;;;26.30;99.90;;;;;;4922442;29;20040;-84
2022/06/30 08:00:10;;;;;;;10.55;3.70;;;26.30;99.90;;;;;;4912877;29;20088;-85
2022/06/30 08:02:40;;;;;;;5.47;3.17;;;26.30;99.90;;;;;;4920253;29;20041;-85
2022/06/30 08:05:07;;;;;;;3.47;3.17;;;26.30;99.90;;;;;;4914891;29;20123;-84
2022/06/30 08:07:34;;;;;;;4.55;2.80;;;26.20;99.90;;;;;;4915007;29;20507;-85
2022/06/30 08:10:00;;;;;;;6.70;3.45;;;26.30;99.90;;;;;;4917609;29;20028;-87
2022/06/30 08:12:26;;;;;;;5.22;3.03;;;26.20;99.90;;;;;;4919707;29;20031;-84
2022/06/30 08:14:52;;;;;;;12.23;3.40;;;26.20;99.90;;;;;;4917881;29;20055;-83
2022/06/30 08:17:17;;;;;;;3.60;3.15;;;26.20;99.90;;;;;;4917663;29;20032;-83
2022/06/30 08:19:43;;;;;;;5.97;3.20;;;26.20;99.90;;;;;;4918743;29;20032;-84
2022/06/30 08:22:09;;;;;;;4.80;3.33;;;26.20;99.90;;;;;;4921621;29;20029;-81
2022/06/30 08:24:40;;;;;;;6.38;3.35;;;26.30;99.90;;;;;;4921786;29;20057;-83
2022/06/30 08:27:23;;;;;;;4.30;3.33;;;26.30;99.90;;;;;;4930456;29;20043;-83
2022/06/30 08:29:49;;;;;;;4.72;3.33;;;26.40;99.90;;;;;;4930053;29;20047;-85
2022/06/30 08:32:14;;;;;;;7.43;3.45;;;26.60;99.90;;;;;;4921958;29;20043;-85
2022/06/30 08:34:41;;;;;;;4.15;3.38;;;26.70;99.90;;;;;;4928498;29;20036;-82
2022/06/30 08:37:08;;;;;;;4.25;3.40;;;26.90;99.90;;;;;;4933451;29;20021;-82
2022/06/30 08:42:22;;;;;;;6.38;3.55;;;26.90;99.90;;;;;;4920007;29;20036;-84
2022/06/30 08:45:13;;;;;;;4.72;3.88;;;26.80;99.90;;;;;;4919853;29;20099;-83
2022/06/30 08:47:34;;;;;;;7.95;3.58;;;26.80;99.90;;;;;;4934734;29;20024;-81
2022/06/30 08:50:01;;;;;;;6.63;3.78;;;26.90;99.90;;;;;;4933464;29;20466;-82
2022/06/30 08:52:30;;;;;;;6.63;3.60;;;26.90;99.90;;;;;;4917714;29;20037;-84
2022/06/30 08:54:58;;;;;;;5.13;3.50;;;27.00;99.90;;;;;;4916635;29;20040;-85
2022/06/30 08:57:25;;;;;;;4.65;3.70;;;27.10;99.90;;;;;;4919879;29;20039;-84
2022/06/30 08:59:52;;;;;;;5.55;3.65;;;27.20;99.90;;;;;;4922414;29;20024;-84
2022/06/30 09:02:19;;;;;;;8.45;3.80;;;27.20;99.90;;;;;;4918956;29;20032;-84
2022/06/30 09:04:45;;;;;;;8.60;4.47;;;27.30;99.90;;;;;;4925530;29;20060;-84
2022/06/30 09:07:11;;;;;;;4.43;3.60;;;27.30;99.90;;;;;;4931184;29;20024;-82
2022/06/30 09:09:38;;;;;;;9.77;3.88;;;27.30;99.90;;;;;;4928923;29;20031;-85
2022/06/30 09:12:13;;;;;;;8.98;3.90;;;27.40;99.90;;;;;;4933641;29;20020;-85
2022/06/30 09:14:41;;;;;;;10.40;4.30;;;27.40;99.90;;;;;;4932203;29;20064;-84
2022/06/30 09:17:10;;;;;;;6.00;3.90;;;27.50;99.90;;;;;;4935060;29;20039;-84
2022/06/30 09:19:40;;;;;;;6.55;4.00;;;27.50;99.90;;;;;;4925456;29;20024;-85
2022/06/30 09:22:14;;;;;;;6.93;4.03;;;27.50;99.90;;;;;;4928507;29;20065;-85
2022/06/30 09:24:41;;;;;;;10.13;4.13;;;27.50;99.90;;;;;;4929340;29;20061;-84
2022/06/30 09:27:19;;;;;;;6.32;3.63;;;27.70;99.90;;;;;;4929367;29;20031;-84
2022/06/30 09:29:59;;;;;;;6.93;3.83;;;27.70;99.90;;;;;;4920244;29;20033;-87
2022/06/30 09:32:25;;;;;;;5.68;4.25;;;27.70;99.90;;;;;;4915681;29;20139;-84
2022/06/30 09:34:52;;;;;;;4.75;3.40;;;27.70;99.90;;;;;;4918563;29;20028;-85
2022/06/30 09:37:21;;;;;;;5.75;3.60;;;27.70;99.90;;;;;;4925668;29;20056;-85
2022/06/30 09:39:48;;;;;;;4.68;3.60;;;27.80;99.90;;;;;;4938684;29;20021;-85
2022/06/30 09:42:15;;;;;;;5.75;3.88;;;27.90;99.90;;;;;;4938025;29;20063;-88
2022/06/30 09:44:47;;;;;;;10.50;3.80;;;28.10;99.90;;;;;;4920991;29;20020;-87
2022/06/30 09:47:13;;;;;;;9.07;3.70;;;28.20;99.90;;;;;;4937629;29;20035;-85
2022/06/30 09:49:47;;;;;;;5.40;3.47;;;28.60;99.90;;;;;;4935241;29;20036;-84
2022/06/30 09:52:24;;;;;;;7.75;3.85;;;28.90;99.90;;;;;;4936287;29;20031;-86
2022/06/30 09:54:59;;;;;;;6.70;3.05;;;29.30;98.70;;;;;;4936623;29;20032;-85
2022/06/30 09:57:31;;;;;;;8.73;3.50;;;29.90;97.90;;;;;;4937829;29;20021;-85
2022/06/30 10:00:09;;;;;;;4.90;2.90;;;30.40;96.60;;;;;;4940268;29;20031;-86
2022/06/30 10:02:46;;;;;;;9.73;3.17;;;30.90;95.50;;;;;;4940487;29;20060;-87
2022/06/30 10:05:14;;;;;;;3.92;2.70;;;31.50;94.90;;;;;;4938253;29;20050;-87
2022/06/30 10:07:40;;;;;;;8.52;3.20;;;33.00;93.80;;;;;;4937115;29;20035;-87
2022/06/30 10:10:09;;;;;;;4.57;2.95;;;33.50;92.50;;;;;;4936073;29;20040;-86
2022/06/30 10:12:36;;;;;;;6.20;3.10;;;33.90;91.80;;;;;;4935736;29;20123;-87
2022/06/30 10:15:03;;;;;;;5.43;2.70;;;34.50;90.90;;;;;;4927821;29;20063;-89
2022/06/30 10:17:33;;;;;;;5.70;2.80;;;35.30;90.00;;;;;;4930553;29;20032;-86
2022/06/30 10:19:59;;;;;;;4.25;3.10;;;36.10;87.30;;;;;;4934259;29;20036;-86
2022/06/30 10:22:27;;;;;;;4.93;2.65;;;36.60;85.30;;;;;;4935990;29;20118;-85
2022/06/30 10:24:54;;;;;;;4.68;3.25;;;36.90;84.40;;;;;;4934591;29;20047;-85
2022/06/30 10:27:21;;;;;;;4.13;2.53;;;37.80;82.70;;;;;;4934327;29;20063;-87
2022/06/30 10:29:58;;;;;;;4.43;2.50;;;37.90;80.70;;;;;;4935874;29;20012;-86
2022/06/30 10:32:53;;;;;;;2.75;2.50;;;38.30;79.30;;;;;;4937757;29;20031;-85
2022/06/30 10:35:38;;;;;;;7.85;3.03;;;39.30;76.90;;;;;;4936422;29;20036;-86
2022/06/30 10:38:22;;;;;;;4.50;2.80;;;39.60;75.20;;;;;;4935377;29;20043;-85
2022/06/30 10:41:07;;;;;;;3.90;2.35;;;40.60;73.50;;;;;;4933102;29;20076;-87
2022/06/30 10:43:34;;;;;;;5.47;2.90;;;41.00;71.20;;;;;;4930743;29;20028;-86
2022/06/30 10:46:05;;;;;;;4.80;2.75;;;41.20;70.20;;;;;;4931075;29;20032;-85
2022/06/30 10:48:53;;;;;;;5.80;2.78;;;41.60;69.10;;;;;;4931563;29;20032;-86
2022/06/30 10:51:20;;;;;;;3.72;3.20;;;42.10;67.80;;;;;;4928700;29;20036;-86
2022/06/30 10:53:46;;;;;;;4.95;2.90;;;42.50;67.00;;;;;;4929179;29;20256;-86
2022/06/30 10:56:11;;;;;;;5.50;2.80;;;43.20;65.50;;;;;;4929305;29;20146;-86
2022/06/30 10:59:04;;;;;;;4.82;2.90;;;43.60;64.30;;;;;;4928701;29;20473;-87
2022/06/30 11:01:30;;;;;;;2.85;2.65;;;43.90;63.10;;;;;;4928089;29;20091;-85
2022/06/30 11:03:57;;;;;;;3.85;2.50;;;44.00;62.20;;;;;;4928764;29;20036;-87
2022/06/30 11:06:26;;;;;;;3.28;2.58;;;44.40;61.70;;;;;;4929025;29;20092;-86
2022/06/30 11:08:57;;;;;;;8.25;2.70;;;44.70;61.00;;;;;;4930508;29;20032;-88
2022/06/30 11:11:24;;;;;;;4.28;2.88;;;44.90;60.40;;;;;;4935937;29;20035;-85
2022/06/30 11:13:51;;;;;;;8.73;3.50;;;44.90;59.80;;;;;;4938552;29;20028;-85
2022/06/30 11:16:18;;;;;;;3.78;2.75;;;44.90;59.60;;;;;;4940643;29;20050;-86
2022/06/30 11:18:45;;;;;;;4.93;2.67;;;44.90;59.00;;;;;;4937895;29;20013;-84
2022/06/30 11:21:11;;;;;;;2.92;2.60;;;45.40;59.30;;;;;;4935426;29;20095;-84
2022/06/30 11:23:39;;;;;;;4.18;2.83;;;45.10;58.60;;;;;;4932133;29;20040;-86
2022/06/30 11:28:53;;;;;;;4.57;2.80;;;44.60;58.40;;;;;;4941143;29;20016;-85
2022/06/30 11:31:23;;;;;;;8.50;3.15;;;44.40;58.20;;;;;;4944524;29;20039;-84
2022/06/30 11:33:54;;;;;;;4.18;2.72;;;45.00;58.20;;;;;;4944196;29;20020;-85
2022/06/30 11:36:20;;;;;;;5.93;2.80;;;45.70;57.70;;;;;;4944304;29;20048;-86
2022/06/30 11:38:58;;;;;;;5.82;2.58;;;46.00;57.10;;;;;;4944140;29;20285;-84
2022/06/30 11:44:10;;;;;;;6.55;3.20;;;46.50;55.70;;;;;;4942356;29;20056;-87
2022/06/30 11:46:59;;;;;;;4.22;2.88;;;45.80;56.00;;;;;;4941760;29;20047;-85
2022/06/30 11:49:28;;;;;;;5.03;3.22;;;45.30;56.70;;;;;;4938698;29;20043;-86
2022/06/30 11:51:55;;;;;;;5.95;2.75;;;45.40;56.70;;;;;;4941120;29;20087;-87
2022/06/30 11:54:26;;;;;;;3.13;2.83;;;46.10;56.10;;;;;;4940405;29;20060;-85
2022/06/30 11:56:54;;;;;;;4.38;3.05;;;46.20;55.80;;;;;;4937540;29;20028;-86
2022/06/30 11:59:20;;;;;;;4.80;2.88;;;46.90;55.40;;;;;;4934111;29;20032;-85
2022/06/30 12:02:06;;;;;;;7.85;3.38;;;47.20;54.80;;;;;;4935596;29;20042;-87
2022/06/30 12:04:34;;;;;;;8.23;2.90;;;47.50;54.40;;;;;;4934427;29;20530;-85
2022/06/30 12:07:02;;;;;;;5.68;3.20;;;47.40;54.30;;;;;;4936109;29;20481;-87
2022/06/30 12:09:28;;;;;;;4.28;3.05;;;47.50;54.20;;;;;;4935108;29;20036;-87
2022/06/30 12:11:54;;;;;;;4.18;3.08;;;46.80;54.20;;;;;;4935239;29;20091;-86
2022/06/30 12:14:19;;;;;;;5.63;3.00;;;46.30;54.40;;;;;;4933750;29;20040;-87
2022/06/30 12:16:45;;;;;;;6.97;3.28;;;45.60;55.00;;;;;;4941950;29;20059;-86
2022/06/30 12:19:15;;;;;;;7.28;3.17;;;45.30;55.30;;;;;;4942653;29;20030;-86
2022/06/30 12:21:41;;;;;;;5.32;3.30;;;45.30;55.30;;;;;;4942568;29;20012;-84
2022/06/30 12:24:08;;;;;;;4.88;2.58;;;46.30;54.60;;;;;;4953236;23;20043;-82
2022/06/30 12:26:34;;;;;;;8.63;3.20;;;46.50;54.70;;;;;;4937193;29;20063;-84
2022/06/30 12:29:12;;;;;;;6.05;3.25;;;46.80;54.00;;;;;;4930497;29;20032;-83
2022/06/30 12:31:38;;;;;;;5.03;3.22;;;47.60;53.10;;;;;;4931693;29;20036;-85
2022/06/30 12:34:04;;;;;;;6.88;3.05;;;47.80;52.80;;;;;;4914934;29;20079;-83
2022/06/30 12:36:32;;;;;;;7.30;3.33;;;48.30;52.50;;;;;;4914563;29;20064;-83
2022/06/30 12:39:11;;;;;;;4.55;2.95;;;48.20;52.50;;;;;;4915073;29;20029;-83
2022/06/30 12:41:37;;;;;;;3.92;2.78;;;48.20;52.10;;;;;;4914474;29;20032;-85
2022/06/30 12:44:03;;;;;;;6.25;3.08;;;48.40;52.90;;;;;;4916318;29;20035;-85
2022/06/30 12:46:39;;;;;;;4.15;2.97;;;47.60;52.60;;;;;;4918652;29;20040;-84
2022/06/30 12:49:05;;;;;;;7.10;3.10;;;47.60;52.50;;;;;;4922141;29;20029;-82
2022/06/30 12:51:31;;;;;;;3.53;3.22;;;48.00;52.40;;;;;;4923492;29;20017;-81
2022/06/30 12:54:03;;;;;;;5.43;3.40;;;48.00;52.20;;;;;;4921591;29;20028;-82
2022/06/30 12:56:29;;;;;;;7.45;3.47;;;48.10;52.20;;;;;;4922828;29;20040;-85
2022/06/30 12:59:05;;;;;;;5.55;2.85;;;47.80;52.00;;;;;;4917660;29;20028;-84
2022/06/30 13:01:36;;;;;;;5.78;3.30;;;48.10;51.80;;;;;;4917525;29;20064;-84
2022/06/30 13:04:10;;;;;;;5.13;3.15;;;47.50;52.00;;;;;;4916697;29;20044;-83